Time;durP1;ratioP1;P1;durP2;ratioP2;P2;SDS_P1;SDS_P2;PMS_P1;PMS_P2;Temp;Humidity;BMP_temperature;BMP_pressure;BME280_temperature;BME280_humidity;BME280_pressure;Samples;Min_cycle;Max_cycle;Signal;HPM_P1;HPM_P2
2021/01/08 00:00:43;;;;;;;28.07;19.63;;;0.90;99.90;;;1.82;93.86;97587.41;5186254;28;20241;-76
2021/01/08 00:03:16;;;;;;;24.27;18.90;;;1.00;99.90;;;1.79;94.30;97585.50;5186046;28;20306;-76
2021/01/08 00:05:48;;;;;;;23.37;18.87;;;0.90;99.90;;;1.83;94.32;97584.13;5185139;28;20207;-76
2021/01/08 00:08:24;;;;;;;22.50;18.53;;;1.00;99.90;;;1.85;93.75;97591.81;5185528;28;20614;-76
2021/01/08 00:10:56;;;;;;;22.40;18.63;;;1.00;99.90;;;1.87;94.04;97573.56;5186115;28;20252;-76
2021/01/08 00:13:29;;;;;;;20.93;17.07;;;1.00;99.90;;;1.91;93.40;97582.28;5186339;28;20227;-75
2021/01/08 00:16:01;;;;;;;21.67;17.97;;;0.90;99.90;;;1.90;93.45;97578.00;5201965;28;20202;-74
2021/01/08 00:18:33;;;;;;;23.43;18.60;;;0.90;99.90;;;1.91;93.33;97574.72;5206425;28;20225;-76
2021/01/08 00:21:05;;;;;;;21.47;17.60;;;0.90;99.90;;;1.96;92.87;97583.56;5206008;28;20201;-75
2021/01/08 00:23:39;;;;;;;23.13;17.17;;;0.90;99.90;;;1.97;93.63;97576.09;5206791;28;20223;-73
2021/01/08 00:26:11;;;;;;;21.13;18.20;;;0.90;99.90;;;1.99;93.24;97583.81;5205664;28;20202;-76
2021/01/08 00:28:45;;;;;;;20.77;17.70;;;0.90;99.90;;;1.99;93.53;97578.78;5206156;28;20198;-76
2021/01/08 00:31:17;;;;;;;22.27;18.17;;;0.90;99.90;;;2.06;93.04;97573.50;5194561;28;20202;-76
2021/01/08 00:33:50;;;;;;;19.90;16.40;;;0.90;99.90;;;2.01;92.61;97568.06;5185966;28;20632;-77
2021/01/08 00:36:22;;;;;;;20.10;16.97;;;0.90;99.90;;;2.05;91.91;97566.69;5185402;28;20203;-76
2021/01/08 00:38:55;;;;;;;21.33;19.00;;;0.90;99.90;;;1.94;92.67;97573.31;5184732;28;20228;-75
2021/01/08 00:41:30;;;;;;;20.17;16.57;;;0.80;99.90;;;1.83;92.58;97565.59;5185598;28;20203;-77
2021/01/08 00:44:02;;;;;;;21.40;17.33;;;0.80;99.90;;;1.78;93.41;97570.28;5184940;28;20205;-76
2021/01/08 00:46:35;;;;;;;21.47;17.57;;;0.80;99.90;;;1.76;93.85;97575.16;5206026;28;20200;-76
2021/01/08 00:49:08;;;;;;;21.47;18.67;;;0.80;99.90;;;1.78;94.12;97576.19;5187204;28;20218;-76
2021/01/08 00:51:41;;;;;;;24.00;19.53;;;0.90;99.90;;;1.84;93.71;97574.94;5185089;28;20295;-76
2021/01/08 00:54:14;;;;;;;23.03;18.30;;;0.90;99.90;;;1.83;94.27;97583.25;5183998;28;20780;-77
2021/01/08 00:56:46;;;;;;;20.90;17.43;;;0.90;99.90;;;1.89;94.41;97576.19;5186065;28;20207;-74
2021/01/08 00:59:18;;;;;;;20.63;17.13;;;0.90;99.90;;;1.87;93.62;97577.72;5185544;28;20225;-74
2021/01/08 01:01:50;;;;;;;22.67;18.00;;;0.90;99.90;;;1.83;94.33;97570.66;5183972;28;20219;-75
2021/01/08 01:04:22;;;;;;;20.27;17.43;;;0.90;99.90;;;1.84;93.68;97577.47;5184925;28;20209;-74
2021/01/08 01:06:54;;;;;;;22.20;18.03;;;0.90;99.90;;;1.88;94.33;97571.94;5184691;28;20691;-76
2021/01/08 01:09:27;;;;;;;22.20;17.37;;;1.00;99.90;;;1.83;94.34;97576.56;5183117;28;20190;-76
2021/01/08 01:11:59;;;;;;;21.03;17.57;;;0.90;99.90;;;1.83;94.48;97573.16;5184382;28;20229;-76
2021/01/08 01:14:31;;;;;;;22.07;17.87;;;0.90;99.90;;;1.85;95.04;97579.22;5188017;28;20194;-76
2021/01/08 01:17:04;;;;;;;22.60;17.90;;;0.90;99.90;;;1.87;94.83;97582.78;5203894;28;20684;-75
2021/01/08 01:19:36;;;;;;;23.87;17.70;;;1.00;99.90;;;1.91;94.41;97587.31;5203899;28;20225;-76
2021/01/08 01:22:08;;;;;;;21.37;17.57;;;1.00;99.90;;;1.91;94.51;97582.28;5189315;28;20653;-76
2021/01/08 01:24:41;;;;;;;20.00;17.57;;;1.00;99.90;;;1.90;94.30;97590.59;5183648;28;20208;-76
2021/01/08 01:27:13;;;;;;;21.80;17.83;;;1.00;99.90;;;1.86;93.82;97584.41;5184405;28;20203;-75
2021/01/08 01:29:45;;;;;;;20.93;17.77;;;0.90;99.90;;;1.87;94.28;97587.81;5203974;28;20295;-76
2021/01/08 01:32:18;;;;;;;22.40;18.67;;;0.90;99.90;;;1.93;93.73;97598.41;5204602;28;20276;-74
2021/01/08 01:34:50;;;;;;;21.93;17.40;;;0.90;99.90;;;1.90;93.91;97596.50;5205042;28;20552;-76
2021/01/08 01:37:22;;;;;;;21.00;17.87;;;0.90;99.90;;;1.90;93.82;97588.94;5202602;28;20201;-76
2021/01/08 01:39:55;;;;;;;21.67;18.13;;;0.90;99.90;;;1.94;93.27;97596.00;5197237;28;20242;-76
2021/01/08 01:42:27;;;;;;;21.47;17.70;;;0.90;99.90;;;1.93;93.64;97603.44;5204177;28;20229;-76
2021/01/08 01:45:00;;;;;;;21.67;17.17;;;0.90;99.90;;;1.92;93.08;97595.00;5199399;28;20203;-76
2021/01/08 01:47:32;;;;;;;21.07;17.47;;;0.90;99.90;;;1.87;93.56;97597.88;5183293;28;20590;-75
2021/01/08 01:50:06;;;;;;;19.77;16.47;;;0.90;99.90;;;1.82;93.11;97606.69;5184488;28;20203;-75
2021/01/08 01:52:39;;;;;;;21.90;17.17;;;0.90;99.90;;;1.84;93.80;97602.66;5183444;28;20226;-74
2021/01/08 01:55:14;;;;;;;22.00;16.97;;;0.90;99.90;;;1.84;93.97;97603.53;5183949;28;20198;-77
2021/01/08 01:57:46;;;;;;;20.90;17.47;;;0.90;99.90;;;1.85;94.16;97604.44;5186160;28;20229;-75
2021/01/08 02:00:20;;;;;;;21.07;17.87;;;0.90;99.90;;;1.88;93.60;97609.72;5184043;28;20602;-76
2021/01/08 02:02:56;;;;;;;19.87;17.07;;;0.90;99.90;;;1.83;93.62;97611.84;5184140;28;20304;-76
2021/01/08 02:05:30;;;;;;;22.37;18.80;;;0.90;99.90;;;1.80;93.32;97609.97;5183805;28;20240;-73
2021/01/08 02:08:06;;;;;;;20.67;17.00;;;0.90;99.90;;;1.80;93.38;97609.97;5183787;28;20234;-76
2021/01/08 02:10:43;;;;;;;22.77;17.63;;;0.90;99.90;;;1.80;93.66;97612.50;5183222;28;20281;-76
2021/01/08 02:13:23;;;;;;;22.47;17.57;;;0.90;99.90;;;1.81;94.57;97618.41;5183685;28;20229;-75
2021/01/08 02:15:57;;;;;;;22.47;17.97;;;0.90;99.90;;;1.77;93.97;97609.72;5183929;28;20209;-76
2021/01/08 02:18:30;;;;;;;23.17;17.63;;;0.90;99.90;;;1.73;94.34;97604.25;5182575;28;20743;-77
2021/01/08 02:21:08;;;;;;;19.97;16.70;;;0.90;99.90;;;1.72;93.71;97605.91;5182728;28;20686;-76
2021/01/08 02:23:48;;;;;;;21.47;17.53;;;0.90;99.90;;;1.72;94.41;97603.38;5183962;28;20235;-74
2021/01/08 02:26:22;;;;;;;22.63;17.93;;;0.80;99.90;;;1.67;94.45;97603.72;5183498;28;20201;-75
2021/01/08 02:28:55;;;;;;;22.13;16.87;;;0.80;99.90;;;1.68;94.61;97608.00;5183882;28;20693;-77
2021/01/08 02:31:27;;;;;;;20.73;17.43;;;0.80;99.90;;;1.65;93.34;97606.09;5202935;28;20212;-77
2021/01/08 02:34:01;;;;;;;21.10;17.10;;;0.70;99.90;;;1.64;92.97;97604.34;5203934;28;20209;-76
2021/01/08 02:36:38;;;;;;;20.60;15.93;;;0.60;99.90;;;1.56;92.77;97610.34;5203222;28;20205;-76
2021/01/08 02:39:12;;;;;;;20.20;16.47;;;0.60;99.90;;;1.49;93.30;97608.06;5204099;28;20227;-77
2021/01/08 02:41:47;;;;;;;18.43;16.43;;;0.60;99.90;;;1.42;92.95;97601.59;5193407;28;20256;-77
2021/01/08 02:44:21;;;;;;;20.87;16.43;;;0.50;99.90;;;1.45;93.61;97608.53;5182464;28;20203;-75
2021/01/08 02:46:53;;;;;;;20.33;16.87;;;0.50;99.90;;;1.39;93.64;97598.78;5183008;28;20206;-76
2021/01/08 02:49:25;;;;;;;18.90;15.03;;;0.40;99.90;;;1.29;93.37;97594.59;5183333;28;20232;-76
2021/01/08 02:51:59;;;;;;;19.43;15.90;;;0.40;99.90;;;1.27;93.57;97593.56;5204012;28;20224;-76
2021/01/08 02:54:32;;;;;;;21.13;16.27;;;0.40;99.90;;;1.32;93.10;97597.38;5203202;28;20202;-76
2021/01/08 02:57:06;;;;;;;21.33;16.60;;;0.30;99.90;;;1.26;93.18;97593.41;5188426;28;20205;-76
2021/01/08 02:59:39;;;;;;;19.60;16.67;;;0.30;99.90;;;1.21;93.59;97587.13;5203024;28;20221;-77
2021/01/08 03:02:12;;;;;;;19.73;16.03;;;0.30;99.90;;;1.18;93.70;97595.28;5204068;28;20259;-76
2021/01/08 03:04:44;;;;;;;19.63;15.60;;;0.40;99.90;;;1.23;94.24;97594.06;5203741;28;20197;-76
2021/01/08 03:07:19;;;;;;;19.37;15.33;;;0.40;99.90;;;1.27;94.17;97586.03;5203908;28;20213;-77
2021/01/08 03:09:52;;;;;;;21.60;16.63;;;0.40;99.90;;;1.31;93.94;97595.59;5203381;28;20236;-76
2021/01/08 03:12:28;;;;;;;20.43;17.27;;;0.50;99.90;;;1.34;94.76;97595.91;5203396;28;20238;-77
2021/01/08 03:15:05;;;;;;;19.03;16.23;;;0.50;99.90;;;1.41;93.45;97598.94;5194177;28;20201;-77
2021/01/08 03:17:37;;;;;;;18.77;16.27;;;0.60;99.90;;;1.43;93.68;97589.88;5183446;28;20203;-76
2021/01/08 03:20:12;;;;;;;19.53;16.57;;;0.60;99.90;;;1.50;93.60;97599.75;5203041;28;20225;-76
2021/01/08 03:22:44;;;;;;;17.77;15.90;;;0.60;99.90;;;1.52;93.54;97601.66;5204121;28;20234;-75
2021/01/08 03:25:17;;;;;;;18.47;16.33;;;0.60;99.90;;;1.52;93.25;97598.25;5196710;28;20294;-76
2021/01/08 03:27:49;;;;;;;19.17;16.00;;;0.50;99.90;;;1.47;92.86;97590.28;5182907;28;20206;-75
2021/01/08 03:30:22;;;;;;;20.00;17.17;;;0.60;99.90;;;1.48;93.86;97596.19;5180662;28;20188;-76
2021/01/08 03:32:54;;;;;;;22.20;16.67;;;0.50;99.90;;;1.48;93.19;97591.16;5185652;28;20225;-76
2021/01/08 03:35:27;;;;;;;21.87;16.83;;;0.50;99.90;;;1.55;92.61;97593.47;5186701;28;20211;-74
2021/01/08 03:37:59;;;;;;;20.43;16.33;;;0.50;99.90;;;1.52;93.24;97598.25;5186294;28;20211;-75
2021/01/08 03:40:33;;;;;;;20.90;16.43;;;0.50;99.90;;;1.51;92.82;97596.47;5186410;28;20232;-75
2021/01/08 03:43:06;;;;;;;18.97;15.87;;;0.60;99.90;;;1.50;93.21;97587.16;5187110;28;20394;-77
2021/01/08 03:45:38;;;;;;;18.77;16.03;;;0.60;99.90;;;1.53;93.31;97595.84;5206800;28;20581;-74
2021/01/08 03:48:11;;;;;;;21.83;17.80;;;0.60;99.90;;;1.52;93.15;97598.25;5206795;28;20211;-77
2021/01/08 03:50:43;;;;;;;21.50;17.30;;;0.60;99.90;;;1.49;93.95;97596.34;5207393;28;20201;-76
2021/01/08 03:53:15;;;;;;;20.20;16.83;;;0.60;99.90;;;1.47;93.90;97599.47;5206766;28;20319;-77
2021/01/08 03:55:47;;;;;;;21.13;17.60;;;0.60;99.90;;;1.46;93.64;97588.53;5206792;28;20201;-77
2021/01/08 03:58:20;;;;;;;20.83;16.97;;;0.60;99.90;;;1.43;94.02;97589.88;5201127;28;20202;-77
2021/01/08 04:00:52;;;;;;;22.80;17.40;;;0.60;99.90;;;1.50;93.25;97588.03;5192259;28;20214;-77
2021/01/08 04:03:24;;;;;;;19.40;16.43;;;0.70;99.90;;;1.47;93.44;97590.28;5186904;28;20212;-77
2021/01/08 04:05:56;;;;;;;22.83;17.37;;;0.70;99.90;;;1.48;94.19;97591.16;5186329;28;20210;-77
2021/01/08 04:08:28;;;;;;;21.80;17.77;;;0.70;99.90;;;1.50;94.29;97587.16;5186640;28;20297;-77
2021/01/08 04:11:00;;;;;;;24.37;17.80;;;0.60;99.90;;;1.47;94.04;97584.38;5186738;28;20300;-77
2021/01/08 04:13:33;;;;;;;22.93;17.83;;;0.60;99.90;;;1.43;94.01;97579.78;5186529;28;20222;-77
2021/01/08 04:16:06;;;;;;;23.93;18.00;;;0.60;99.90;;;1.50;93.97;97584.63;5201825;28;20212;-76
2021/01/08 04:18:38;;;;;;;23.00;17.43;;;0.60;99.90;;;1.47;93.32;97584.38;5207330;28;20681;-73
2021/01/08 04:21:10;;;;;;;22.13;17.37;;;0.50;99.90;;;1.53;93.45;97587.41;5207121;28;20262;-76
2021/01/08 04:23:42;;;;;;;23.43;18.63;;;0.50;99.90;;;1.44;93.27;97574.03;5206913;28;20204;-76
2021/01/08 04:26:15;;;;;;;22.83;18.57;;;0.50;99.90;;;1.41;93.90;97578.81;5206217;28;20232;-76
2021/01/08 04:28:48;;;;;;;21.80;16.37;;;0.50;99.90;;;1.39;93.75;97585.34;5195331;28;20197;-76
2021/01/08 04:31:20;;;;;;;24.97;18.43;;;0.50;99.90;;;1.35;93.25;97590.09;5204814;28;20197;-76
2021/01/08 04:33:52;;;;;;;21.37;18.47;;;0.50;99.90;;;1.31;93.46;97588.03;5195999;28;20212;-77
2021/01/08 04:36:25;;;;;;;24.57;18.87;;;0.50;99.90;;;1.35;93.82;97585.06;5186483;28;20630;-76
2021/01/08 04:38:57;;;;;;;25.80;19.30;;;0.60;99.90;;;1.40;93.66;97592.13;5195319;28;20320;-77
2021/01/08 04:41:32;;;;;;;23.90;18.53;;;0.60;99.90;;;1.40;94.55;97585.44;5205771;28;20215;-76
2021/01/08 04:44:05;;;;;;;23.77;17.83;;;0.60;99.90;;;1.44;94.01;97581.59;5193212;28;20203;-73
2021/01/08 04:46:38;;;;;;;22.83;18.43;;;0.60;99.90;;;1.46;94.42;97575.03;5205092;28;20321;-76
2021/01/08 04:49:11;;;;;;;23.43;18.63;;;0.60;99.90;;;1.45;94.71;97578.31;5205598;28;20201;-76
2021/01/08 04:51:44;;;;;;;25.83;19.37;;;0.60;99.90;;;1.41;94.57;97577.16;5184736;28;20226;-76
2021/01/08 04:54:17;;;;;;;24.27;19.83;;;0.60;99.90;;;1.46;94.33;97572.50;5185358;28;20235;-76
2021/01/08 04:56:54;;;;;;;25.30;18.67;;;0.60;99.90;;;1.45;94.14;97569.09;5186123;28;20641;-76
2021/01/08 04:59:28;;;;;;;24.93;19.40;;;0.60;99.90;;;1.46;94.69;97572.50;5202264;28;20582;-76
2021/01/08 05:02:00;;;;;;;22.57;18.00;;;0.60;99.90;;;1.51;94.28;97563.72;5184954;28;20570;-76
2021/01/08 05:04:33;;;;;;;27.60;20.37;;;0.50;99.90;;;1.53;93.93;97564.75;5184997;28;20192;-76
2021/01/08 05:07:05;;;;;;;24.60;19.80;;;0.50;99.90;;;1.46;93.38;97568.38;5184895;28;20213;-76
2021/01/08 05:09:37;;;;;;;23.47;18.40;;;0.50;99.90;;;1.49;92.93;97566.13;5193743;28;20293;-76
2021/01/08 05:12:09;;;;;;;23.80;18.87;;;0.50;99.90;;;1.58;92.74;97566.03;5205313;28;20229;-76
2021/01/08 05:14:44;;;;;;;23.57;18.93;;;0.50;99.90;;;1.55;92.90;97563.25;5204002;28;20637;-76
2021/01/08 05:17:29;;;;;;;25.27;18.70;;;0.50;99.90;;;1.57;92.61;97570.19;5205227;28;20228;-74
2021/01/08 05:20:02;;;;;;;23.00;18.17;;;0.50;99.90;;;1.51;92.14;97566.25;5205531;28;20316;-76
2021/01/08 05:22:35;;;;;;;21.03;17.20;;;0.50;99.90;;;1.43;92.46;97562.16;5202439;28;20312;-73
2021/01/08 05:25:08;;;;;;;21.97;16.97;;;0.50;99.90;;;1.43;93.21;97564.69;5184620;28;20569;-75
2021/01/08 05:27:40;;;;;;;20.30;15.37;;;0.50;99.90;;;1.41;92.43;97557.03;5193919;28;20211;-76
2021/01/08 05:30:16;;;;;;;20.60;15.80;;;0.50;99.90;;;1.42;92.88;97562.94;5204775;28;20210;-73
2021/01/08 05:32:57;;;;;;;22.23;16.17;;;0.50;99.90;;;1.53;91.61;97569.78;5204808;28;20688;-76
2021/01/08 05:35:32;;;;;;;19.27;16.47;;;0.50;99.90;;;1.54;92.22;97566.50;5204178;28;20220;-76
2021/01/08 05:38:06;;;;;;;19.73;15.67;;;0.50;99.90;;;1.47;91.83;97564.22;5204171;28;20306;-76
2021/01/08 05:40:42;;;;;;;20.53;16.70;;;0.50;99.90;;;1.45;91.92;97560.69;5204487;28;20212;-76
2021/01/08 05:43:14;;;;;;;18.77;15.03;;;0.60;99.90;;;1.48;92.21;97565.97;5204813;28;20708;-74
2021/01/08 05:45:47;;;;;;;20.40;15.37;;;0.60;99.90;;;1.56;92.39;97562.50;5193587;28;20204;-76
2021/01/08 05:48:20;;;;;;;19.00;14.83;;;0.60;99.90;;;1.56;91.24;97562.50;5203661;28;20197;-76
2021/01/08 05:50:52;;;;;;;20.67;15.80;;;0.50;99.90;;;1.48;91.84;97564.34;5198989;28;20202;-76
2021/01/08 05:53:26;;;;;;;20.70;15.60;;;0.60;99.90;;;1.48;91.84;97571.03;5184348;28;20241;-74
2021/01/08 05:55:58;;;;;;;18.03;15.20;;;0.50;99.90;;;1.45;92.66;97565.72;5183574;28;20209;-76
2021/01/08 05:58:30;;;;;;;18.93;16.00;;;0.60;99.90;;;1.51;92.08;97573.81;5183493;28;20198;-76
2021/01/08 06:01:04;;;;;;;19.00;15.17;;;0.60;99.90;;;1.62;91.55;97574.72;5200502;28;20243;-76
2021/01/08 06:03:39;;;;;;;17.93;14.77;;;0.60;99.90;;;1.53;90.98;97579.84;5204555;28;20216;-76
2021/01/08 06:06:13;;;;;;;20.40;15.43;;;0.50;99.90;;;1.49;91.43;97577.84;5197952;28;20198;-76
2021/01/08 06:08:50;;;;;;;19.40;15.10;;;0.50;99.90;;;1.48;91.97;97584.47;5183622;28;20661;-75
2021/01/08 06:11:30;;;;;;;18.77;15.27;;;0.60;99.90;;;1.57;91.91;97586.91;5183917;28;20201;-73
2021/01/08 06:14:04;;;;;;;17.67;14.23;;;0.70;99.90;;;1.50;92.67;97592.19;5201958;28;20197;-75
2021/01/08 06:16:39;;;;;;;18.60;15.17;;;0.70;99.90;;;1.45;92.35;97578.31;5203830;28;20240;-76
2021/01/08 06:19:14;;;;;;;18.50;14.80;;;0.70;99.90;;;1.52;92.21;97578.09;5190759;28;20248;-75
2021/01/08 06:21:48;;;;;;;19.00;14.63;;;0.70;99.90;;;1.47;92.42;97582.72;5183456;28;20218;-75
2021/01/08 06:24:25;;;;;;;18.43;15.23;;;0.70;99.90;;;1.44;92.35;97581.59;5193769;28;20199;-76
2021/01/08 06:26:57;;;;;;;16.43;13.13;;;0.60;99.90;;;1.59;91.33;97592.97;5219136;28;20366;-74
2021/01/08 06:29:34;;;;;;;15.97;13.63;;;0.60;99.90;;;1.63;90.75;97586.56;5182740;28;20196;-76
2021/01/08 06:32:16;;;;;;;17.33;13.80;;;0.60;99.90;;;1.53;91.72;97590.81;5182878;28;20316;-76
2021/01/08 06:34:49;;;;;;;19.20;13.63;;;0.60;99.90;;;1.49;91.19;97592.94;5187065;28;20281;-76
2021/01/08 06:37:25;;;;;;;16.70;13.87;;;0.60;99.90;;;1.47;91.69;97589.41;5186075;28;20197;-76
2021/01/08 06:39:59;;;;;;;16.80;13.23;;;0.60;99.90;;;1.52;91.75;97585.66;5183503;28;20719;-76
2021/01/08 06:42:31;;;;;;;14.60;13.10;;;0.60;99.90;;;1.48;91.80;97584.47;5185565;28;20221;-76
2021/01/08 06:45:05;;;;;;;16.20;12.97;;;0.50;99.90;;;1.65;90.88;97585.94;5194535;28;20204;-76
2021/01/08 06:47:45;;;;;;;14.77;12.70;;;0.50;99.90;;;1.69;89.63;97585.47;5184245;28;20202;-75
2021/01/08 06:50:21;;;;;;;14.53;12.47;;;0.50;99.90;;;1.72;89.06;97585.75;5183817;28;20679;-76
2021/01/08 06:52:57;;;;;;;13.27;11.87;;;0.60;99.90;;;1.80;88.52;97596.47;5183301;28;20783;-76
2021/01/08 06:55:38;;;;;;;14.97;12.40;;;0.60;99.90;;;1.75;88.82;97591.03;5196192;28;20288;-76
2021/01/08 06:58:18;;;;;;;14.33;12.13;;;0.70;99.90;;;1.67;89.54;97592.00;5201558;28;20197;-72
2021/01/08 07:00:53;;;;;;;14.47;12.97;;;0.70;99.90;;;1.66;89.65;97589.34;5192730;28;20217;-76
2021/01/08 07:03:27;;;;;;;13.30;11.90;;;0.70;99.90;;;1.72;89.72;97592.41;5218913;28;20310;-74
2021/01/08 07:05:59;;;;;;;14.00;12.50;;;0.70;99.90;;;1.72;89.08;97602.50;5190363;28;20202;-75
2021/01/08 07:08:31;;;;;;;13.57;12.17;;;0.70;99.90;;;1.70;89.06;97599.84;5184774;28;20201;-76
2021/01/08 07:11:04;;;;;;;13.33;11.47;;;0.60;99.90;;;1.75;88.09;97595.19;5189245;28;20198;-75
2021/01/08 07:13:37;;;;;;;13.30;11.43;;;0.70;99.90;;;1.89;87.42;97597.28;5184937;28;20301;-76
2021/01/08 07:16:20;;;;;;;12.30;10.90;;;0.80;99.90;;;1.92;86.20;97596.66;5199323;28;20198;-76
2021/01/08 07:19:05;;;;;;;13.77;11.30;;;0.80;99.90;;;1.64;87.56;97609.38;5190037;28;20247;-73
2021/01/08 07:21:47;;;;;;;13.60;11.70;;;0.70;99.90;;;1.56;88.01;97606.19;5185425;28;20222;-74
2021/01/08 07:24:25;;;;;;;13.37;11.90;;;0.70;99.90;;;1.50;88.84;97610.69;5188454;28;20633;-74
2021/01/08 07:27:16;;;;;;;15.10;12.77;;;0.80;99.90;;;1.59;89.94;97608.09;5202313;28;20207;-76
2021/01/08 07:29:50;;;;;;;12.93;10.97;;;0.80;99.90;;;1.68;89.44;97608.00;5184064;28;20197;-75
2021/01/08 07:32:36;;;;;;;13.83;11.50;;;0.80;99.90;;;1.81;88.33;97613.38;5186473;28;20217;-73
2021/01/08 07:35:21;;;;;;;15.30;12.63;;;0.80;99.90;;;1.86;88.28;97609.63;5193582;28;20187;-76
2021/01/08 07:38:03;;;;;;;14.73;12.00;;;0.90;99.90;;;1.75;88.31;97618.75;5184239;28;20202;-74
2021/01/08 07:40:37;;;;;;;14.10;12.03;;;0.90;99.90;;;1.71;89.28;97624.25;5185510;28;20218;-75
2021/01/08 07:43:11;;;;;;;14.43;11.63;;;0.90;99.90;;;1.66;88.70;97627.13;5188321;28;20705;-75
2021/01/08 07:45:49;;;;;;;14.57;12.43;;;0.80;99.90;;;1.65;89.46;97626.25;5197185;28;20239;-75
2021/01/08 07:48:24;;;;;;;14.47;11.47;;;0.80;99.90;;;1.69;89.90;97628.31;5185489;28;20199;-75
2021/01/08 07:50:59;;;;;;;14.33;11.93;;;0.80;99.90;;;1.74;89.14;97629.56;5189824;28;20204;-74
2021/01/08 07:53:49;;;;;;;15.63;12.87;;;0.80;99.90;;;1.72;88.62;97630.22;5190435;28;20241;-74
2021/01/08 07:56:23;;;;;;;14.27;11.93;;;0.80;99.90;;;1.70;88.82;97635.09;5184192;28;20224;-75
2021/01/08 07:58:59;;;;;;;13.37;11.93;;;0.80;99.90;;;1.78;88.26;97639.16;5188975;28;20204;-76
2021/01/08 08:01:33;;;;;;;13.90;11.67;;;0.80;99.90;;;1.74;88.48;97639.63;5183741;28;20890;-76
2021/01/08 08:04:07;;;;;;;15.53;12.50;;;0.80;99.90;;;1.64;88.68;97642.13;5202347;28;20246;-77
2021/01/08 08:06:43;;;;;;;14.57;12.40;;;0.80;99.90;;;1.67;88.98;97644.91;5186643;28;20289;-77
2021/01/08 08:09:16;;;;;;;16.93;13.13;;;0.80;99.90;;;1.67;89.90;97644.91;5199743;28;20604;-78
2021/01/08 08:11:48;;;;;;;14.83;12.27;;;0.80;99.90;;;1.71;90.03;97653.59;5196976;28;20558;-77
2021/01/08 08:14:21;;;;;;;15.33;12.47;;;0.80;99.90;;;1.74;88.87;97651.34;5201620;28;20200;-76
2021/01/08 08:16:54;;;;;;;14.77;12.67;;;0.80;99.90;;;1.83;89.21;97651.28;5187924;28;20207;-75
2021/01/08 08:19:33;;;;;;;13.80;11.93;;;0.80;99.90;;;1.88;89.00;97655.97;5216607;28;20582;-76
2021/01/08 08:22:06;;;;;;;16.47;13.43;;;0.80;99.90;;;1.87;89.13;97655.84;5207447;28;20215;-76
2021/01/08 08:24:38;;;;;;;16.87;13.30;;;0.80;99.90;;;1.75;89.35;97659.06;5201419;28;20197;-75
2021/01/08 08:27:16;;;;;;;15.33;13.50;;;0.80;99.90;;;1.70;89.35;97665.31;5186504;28;20201;-76
2021/01/08 08:29:49;;;;;;;14.07;11.60;;;0.80;99.90;;;1.75;89.36;97669.13;5199074;28;20226;-75
2021/01/08 08:32:26;;;;;;;17.53;13.37;;;0.80;99.90;;;1.74;90.03;97669.00;5181962;28;20591;-75
2021/01/08 08:35:03;;;;;;;16.37;13.30;;;0.90;99.90;;;1.69;91.18;97668.59;5182135;28;20201;-76
2021/01/08 08:37:49;;;;;;;14.20;12.70;;;0.80;99.90;;;1.78;89.65;97671.94;5198926;28;20285;-76
2021/01/08 08:40:24;;;;;;;16.53;13.67;;;0.80;99.90;;;1.61;89.85;97679.63;5202007;28;20676;-74
2021/01/08 08:42:58;;;;;;;17.43;14.07;;;0.80;99.90;;;1.57;90.13;97678.50;5199109;28;20236;-76
2021/01/08 08:45:31;;;;;;;16.83;14.03;;;0.90;99.90;;;1.57;91.34;97682.63;5188968;28;20289;-75
2021/01/08 08:48:06;;;;;;;18.50;14.80;;;0.80;99.90;;;1.55;91.37;97684.13;5197051;28;20625;-76
2021/01/08 08:50:43;;;;;;;16.23;13.40;;;0.80;99.90;;;1.57;90.60;97683.53;5188470;28;20198;-77
2021/01/08 08:53:16;;;;;;;19.17;15.60;;;0.80;99.90;;;1.56;90.76;97691.81;5190427;28;20226;-77
2021/01/08 08:55:49;;;;;;;16.27;14.07;;;0.80;99.90;;;1.64;91.27;97695.03;5196555;28;20403;-76
2021/01/08 08:58:21;;;;;;;17.43;13.13;;;0.90;99.90;;;1.64;90.92;97692.50;5194294;28;20201;-77
2021/01/08 09:00:53;;;;;;;18.47;14.60;;;0.90;99.90;;;1.70;91.47;97690.53;5192380;28;20237;-77
2021/01/08 09:03:25;;;;;;;16.73;13.90;;;0.90;99.90;;;1.69;90.98;97692.88;5199800;28;20319;-76
2021/01/08 09:05:58;;;;;;;17.40;14.03;;;0.90;99.90;;;1.73;90.74;97693.31;5201619;28;20229;-75
2021/01/08 09:08:36;;;;;;;16.30;13.07;;;0.90;99.90;;;1.76;90.61;97693.56;5192524;28;20216;-77
2021/01/08 09:11:20;;;;;;;17.87;14.73;;;0.80;99.90;;;1.83;89.70;97696.63;5189075;28;20284;-77
2021/01/08 09:13:56;;;;;;;15.60;13.90;;;0.80;99.90;;;1.76;89.36;97688.53;5181545;28;20316;-77
2021/01/08 09:16:36;;;;;;;16.87;13.47;;;0.80;99.90;;;1.67;90.66;97690.25;5197668;28;20645;-77
2021/01/08 09:19:17;;;;;;;15.53;13.77;;;0.80;99.90;;;1.65;90.76;97691.75;5208012;28;20204;-78
2021/01/08 09:21:52;;;;;;;15.87;13.83;;;0.90;99.90;;;1.64;91.75;97692.50;5223031;28;20663;-77
2021/01/08 09:24:30;;;;;;;16.10;13.63;;;0.90;99.90;;;1.69;91.15;97697.94;5191526;28;20200;-77
2021/01/08 09:27:10;;;;;;;16.47;13.43;;;0.90;99.90;;;1.79;91.16;97695.47;5182246;28;20233;-76
2021/01/08 09:29:42;;;;;;;14.87;12.77;;;1.00;99.90;;;1.77;91.12;97686.88;5185552;28;20205;-76
2021/01/08 09:32:31;;;;;;;14.50;12.83;;;0.90;99.90;;;1.86;90.41;97686.81;5185352;28;20252;-77
2021/01/08 09:35:08;;;;;;;16.37;13.27;;;1.00;99.90;;;1.88;90.80;97695.41;5201206;28;20198;-78
2021/01/08 09:37:49;;;;;;;16.03;12.80;;;1.00;99.90;;;1.85;91.23;97685.94;5201617;28;20724;-77
2021/01/08 09:40:22;;;;;;;14.97;12.70;;;1.00;99.90;;;1.88;90.82;97697.91;5201992;28;20578;-77
2021/01/08 09:42:54;;;;;;;17.10;13.63;;;1.00;99.90;;;1.90;91.21;97694.78;5202095;28;20233;-76
2021/01/08 09:45:27;;;;;;;16.50;13.67;;;1.10;99.90;;;2.00;90.59;97696.44;5188308;28;20229;-76
2021/01/08 09:48:00;;;;;;;15.30;12.93;;;1.10;99.90;;;2.00;90.15;97698.97;5195737;28;20286;-77
2021/01/08 09:50:33;;;;;;;15.47;13.07;;;1.10;99.90;;;2.10;90.11;97704.06;5185660;28;20718;-78
2021/01/08 09:53:11;;;;;;;12.53;11.07;;;1.10;99.90;;;2.10;89.43;97701.56;5185082;28;20305;-77
2021/01/08 09:55:44;;;;;;;14.37;12.47;;;1.00;99.90;;;1.91;89.27;97705.75;5192830;28;20199;-77
2021/01/08 09:58:16;;;;;;;13.10;11.63;;;1.00;99.90;;;1.89;89.65;97702.19;5197065;28;20206;-77
2021/01/08 10:00:52;;;;;;;14.77;12.27;;;1.00;99.90;;;1.89;90.61;97712.28;5205084;28;20308;-77
2021/01/08 10:03:25;;;;;;;13.57;11.97;;;0.90;99.90;;;1.80;90.57;97708.22;5197143;28;20300;-77
2021/01/08 10:06:02;;;;;;;15.40;12.07;;;1.00;99.90;;;1.87;89.74;97708.75;5201653;28;20287;-77
2021/01/08 10:08:34;;;;;;;14.70;12.80;;;0.90;99.90;;;1.90;90.18;97711.53;5205134;28;20222;-77
2021/01/08 10:11:08;;;;;;;16.73;13.07;;;0.90;99.90;;;1.86;91.33;97709.50;5205059;28;20203;-77
2021/01/08 10:13:40;;;;;;;18.43;13.60;;;0.90;99.90;;;1.87;90.97;97714.69;5205331;28;20220;-78
2021/01/08 10:16:13;;;;;;;13.80;12.17;;;0.90;99.90;;;1.77;90.58;97707.97;5188550;28;20786;-78
2021/01/08 10:18:45;;;;;;;16.03;12.53;;;0.90;99.90;;;1.78;91.46;97708.84;5192374;28;20202;-77
2021/01/08 10:21:22;;;;;;;14.50;12.37;;;0.90;99.90;;;1.70;92.15;97705.63;5204256;28;20226;-77
2021/01/08 10:23:54;;;;;;;14.50;12.93;;;1.00;99.90;;;1.75;92.28;97711.97;5192383;28;20197;-77
2021/01/08 10:26:27;;;;;;;14.67;13.17;;;1.00;99.90;;;1.81;92.65;97709.09;5197639;28;20288;-77
2021/01/08 10:28:59;;;;;;;16.70;12.40;;;1.00;99.90;;;1.74;92.26;97702.63;5199428;28;20208;-76
2021/01/08 10:31:31;;;;;;;17.37;13.70;;;0.90;99.90;;;1.76;92.84;97706.16;5197925;28;20210;-76
2021/01/08 10:34:03;;;;;;;15.23;12.60;;;1.00;99.90;;;1.81;93.02;97699.03;5188814;28;20197;-76
2021/01/08 10:36:38;;;;;;;13.70;12.30;;;1.00;99.90;;;1.89;92.50;97694.63;5202029;28;20667;-76
2021/01/08 10:39:10;;;;;;;15.40;12.50;;;1.00;99.90;;;1.89;92.86;97694.63;5201117;28;20296;-76
2021/01/08 10:41:43;;;;;;;14.30;12.03;;;1.00;99.90;;;1.89;92.40;97700.59;5202847;28;20227;-76
2021/01/08 10:44:15;;;;;;;14.50;12.93;;;1.00;99.90;;;1.93;92.77;97696.69;5185827;28;20205;-76
2021/01/08 10:46:47;;;;;;;15.27;13.67;;;1.00;99.90;;;1.92;92.84;97692.41;5191454;28;20209;-77
2021/01/08 10:49:22;;;;;;;16.47;12.93;;;1.00;99.90;;;1.93;92.01;97689.13;5205454;28;20197;-77